sensor_id;sensor_type;location;lat;lon;timestamp;pressure;altitude;pressure_sealevel;temperature;humidity
71126;BME280;58785;55.566;38.058;2023-08-12T00:01:59;100479.25;;;21.71;82.28
71126;BME280;58785;55.566;38.058;2023-08-12T00:04:24;100483.84;;;21.70;82.07
71126;BME280;58785;55.566;38.058;2023-08-12T00:06:50;100484.28;;;21.67;82.15
71126;BME280;58785;55.566;38.058;2023-08-12T00:09:16;100476.97;;;21.61;82.37
71126;BME280;58785;55.566;38.058;2023-08-12T00:11:41;100471.75;;;21.60;82.31
71126;BME280;58785;55.566;38.058;2023-08-12T00:14:07;100477.78;;;21.62;82.26
71126;BME280;58785;55.566;38.058;2023-08-12T00:16:33;100474.03;;;21.63;82.17
71126;BME280;58785;55.566;38.058;2023-08-12T00:18:58;100490.75;;;21.66;82.28
71126;BME280;58785;55.566;38.058;2023-08-12T00:21:25;100545.25;;;21.65;81.96
71126;BME280;58785;55.566;38.058;2023-08-12T00:23:51;100552.13;;;21.61;82.31
71126;BME280;58785;55.566;38.058;2023-08-12T00:26:17;100506.63;;;21.56;81.99
71126;BME280;58785;55.566;38.058;2023-08-12T00:28:43;100537.28;;;21.63;81.55
71126;BME280;58785;55.566;38.058;2023-08-12T00:31:08;100548.81;;;21.65;81.48
71126;BME280;58785;55.566;38.058;2023-08-12T00:33:34;100533.97;;;21.68;81.17
71126;BME280;58785;55.566;38.058;2023-08-12T00:36:00;100543.56;;;21.70;81.13
71126;BME280;58785;55.566;38.058;2023-08-12T00:38:26;100540.44;;;21.73;80.79
71126;BME280;58785;55.566;38.058;2023-08-12T00:40:51;100541.06;;;21.75;80.57
71126;BME280;58785;55.566;38.058;2023-08-12T00:43:17;100540.84;;;21.77;80.51
71126;BME280;58785;55.566;38.058;2023-08-12T00:45:43;100520.19;;;21.76;80.72
71126;BME280;58785;55.566;38.058;2023-08-12T00:48:10;100533.34;;;21.79;80.56
71126;BME280;58785;55.566;38.058;2023-08-12T00:50:37;100536.66;;;21.81;80.25
71126;BME280;58785;55.566;38.058;2023-08-12T00:53:04;100526.03;;;21.79;80.29
71126;BME280;58785;55.566;38.058;2023-08-12T00:55:33;100523.75;;;21.76;80.53
71126;BME280;58785;55.566;38.058;2023-08-12T00:57:59;100529.16;;;21.76;80.32
71126;BME280;58785;55.566;38.058;2023-08-12T01:00:25;100540.25;;;21.75;80.47
71126;BME280;58785;55.566;38.058;2023-08-12T01:02:51;100534.38;;;21.71;80.42
71126;BME280;58785;55.566;38.058;2023-08-12T01:05:17;100543.56;;;21.70;80.62
71126;BME280;58785;55.566;38.058;2023-08-12T01:07:44;100551.31;;;21.67;80.65
71126;BME280;58785;55.566;38.058;2023-08-12T01:10:10;100547.31;;;21.63;80.47
71126;BME280;58785;55.566;38.058;2023-08-12T01:12:47;100539.19;;;21.63;80.57
71126;BME280;58785;55.566;38.058;2023-08-12T01:15:18;100537.28;;;21.63;80.54
71126;BME280;58785;55.566;38.058;2023-08-12T01:17:47;100538.97;;;21.64;80.52
71126;BME280;58785;55.566;38.058;2023-08-12T01:20:20;100523.75;;;21.57;80.74
71126;BME280;58785;55.566;38.058;2023-08-12T01:23:16;100520.59;;;21.60;80.76
71126;BME280;58785;55.566;38.058;2023-08-12T01:25:42;100509.34;;;21.56;80.89
71126;BME280;58785;55.566;38.058;2023-08-12T01:28:08;100500.56;;;21.54;81.04
71126;BME280;58785;55.566;38.058;2023-08-12T01:30:50;100506.19;;;21.52;81.19
71126;BME280;58785;55.566;38.058;2023-08-12T01:34:02;100507.25;;;21.51;81.33
71126;BME280;58785;55.566;38.058;2023-08-12T01:36:19;100515.81;;;21.48;81.16
71126;BME280;58785;55.566;38.058;2023-08-12T01:38:51;100511.44;;;21.47;81.20
71126;BME280;58785;55.566;38.058;2023-08-12T01:41:18;100504.34;;;21.46;81.38
71126;BME280;58785;55.566;38.058;2023-08-12T01:43:46;100498.69;;;21.41;81.57
71126;BME280;58785;55.566;38.058;2023-08-12T01:46:12;100502.03;;;21.37;81.65
71126;BME280;58785;55.566;38.058;2023-08-12T01:48:38;100498.91;;;21.40;81.65
71126;BME280;58785;55.566;38.058;2023-08-12T01:51:04;100501.22;;;21.36;81.66
71126;BME280;58785;55.566;38.058;2023-08-12T01:53:30;100495.56;;;21.38;81.86
71126;BME280;58785;55.566;38.058;2023-08-12T01:55:55;100501.00;;;21.38;81.92
71126;BME280;58785;55.566;38.058;2023-08-12T01:58:21;100502.25;;;21.35;81.90
71126;BME280;58785;55.566;38.058;2023-08-12T02:00:47;100501.81;;;21.38;81.79
71126;BME280;58785;55.566;38.058;2023-08-12T02:03:13;100506.63;;;21.36;81.96
71126;BME280;58785;55.566;38.058;2023-08-12T02:05:38;100506.63;;;21.36;82.63
71126;BME280;58785;55.566;38.058;2023-08-12T02:08:05;100493.47;;;21.33;82.16
71126;BME280;58785;55.566;38.058;2023-08-12T02:10:30;100495.56;;;21.31;82.17
71126;BME280;58785;55.566;38.058;2023-08-12T02:12:56;100480.53;;;21.29;82.14
71126;BME280;58785;55.566;38.058;2023-08-12T02:15:22;100495.34;;;21.33;81.98
71126;BME280;58785;55.566;38.058;2023-08-12T02:17:48;100505.56;;;21.31;82.22
71126;BME280;58785;55.566;38.058;2023-08-12T02:20:14;100515.81;;;21.29;82.15
71126;BME280;58785;55.566;38.058;2023-08-12T02:22:39;100514.13;;;21.28;81.84
71126;BME280;58785;55.566;38.058;2023-08-12T02:25:05;100515.81;;;21.29;81.94
71126;BME280;58785;55.566;38.058;2023-08-12T02:27:31;100516.44;;;21.31;81.85
71126;BME280;58785;55.566;38.058;2023-08-12T02:29:57;100491.59;;;21.27;81.67
71126;BME280;58785;55.566;38.058;2023-08-12T02:32:22;100502.84;;;21.31;81.87
71126;BME280;58785;55.566;38.058;2023-08-12T02:34:48;100498.06;;;21.33;81.70
71126;BME280;58785;55.566;38.058;2023-08-12T02:37:14;100499.31;;;21.30;81.75
71126;BME280;58785;55.566;38.058;2023-08-12T02:39:39;100485.31;;;21.33;81.41
71126;BME280;58785;55.566;38.058;2023-08-12T02:42:05;100484.94;;;21.36;81.19
71126;BME280;58785;55.566;38.058;2023-08-12T02:44:31;100485.53;;;21.38;81.19
71126;BME280;58785;55.566;38.058;2023-08-12T02:46:57;100485.94;;;21.42;80.81
71126;BME280;58785;55.566;38.058;2023-08-12T02:49:23;100470.09;;;21.39;80.87
71126;BME280;58785;55.566;38.058;2023-08-12T02:51:48;100449.22;;;21.39;80.65
71126;BME280;58785;55.566;38.058;2023-08-12T02:54:14;100445.03;;;21.43;80.46
71126;BME280;58785;55.566;38.058;2023-08-12T02:56:40;100439.63;;;21.43;80.22
71126;BME280;58785;55.566;38.058;2023-08-12T02:59:06;100440.44;;;21.44;79.91
71126;BME280;58785;55.566;38.058;2023-08-12T03:01:31;100434.84;;;21.45;79.67
71126;BME280;58785;55.566;38.058;2023-08-12T03:03:57;100437.94;;;21.49;79.42
71126;BME280;58785;55.566;38.058;2023-08-12T03:06:23;100441.72;;;21.55;79.17
71126;BME280;58785;55.566;38.058;2023-08-12T03:08:49;100439.63;;;21.57;79.10
71126;BME280;58785;55.566;38.058;2023-08-12T03:11:14;100436.91;;;21.57;79.03
71126;BME280;58785;55.566;38.058;2023-08-12T03:13:41;100433.56;;;21.55;78.99
71126;BME280;58785;55.566;38.058;2023-08-12T03:16:11;100437.53;;;21.59;78.65
71126;BME280;58785;55.566;38.058;2023-08-12T03:18:38;100436.03;;;21.63;78.51
71126;BME280;58785;55.566;38.058;2023-08-12T03:21:07;100451.72;;;21.67;78.29
71126;BME280;58785;55.566;38.058;2023-08-12T03:23:35;100458.59;;;21.70;78.17
71126;BME280;58785;55.566;38.058;2023-08-12T03:26:00;100463.19;;;21.76;77.88
71126;BME280;58785;55.566;38.058;2023-08-12T03:28:26;100471.50;;;21.81;77.97
71126;BME280;58785;55.566;38.058;2023-08-12T03:30:52;100474.44;;;21.86;77.86
71126;BME280;58785;55.566;38.058;2023-08-12T03:33:18;100464.81;;;21.90;77.81
71126;BME280;58785;55.566;38.058;2023-08-12T03:35:45;100462.28;;;21.95;77.52
71126;BME280;58785;55.566;38.058;2023-08-12T03:38:11;100460.19;;;21.97;77.30
71126;BME280;58785;55.566;38.058;2023-08-12T03:40:40;100468.53;;;22.02;77.26
71126;BME280;58785;55.566;38.058;2023-08-12T03:43:07;100461.84;;;22.05;77.30
71126;BME280;58785;55.566;38.058;2023-08-12T03:45:39;100467.28;;;22.05;76.99
71126;BME280;58785;55.566;38.058;2023-08-12T03:48:05;100472.31;;;22.08;77.10
71126;BME280;58785;55.566;38.058;2023-08-12T03:50:37;100476.25;;;22.12;77.21
71126;BME280;58785;55.566;38.058;2023-08-12T03:53:04;100469.38;;;22.16;77.10
71126;BME280;58785;55.566;38.058;2023-08-12T03:55:30;100455.56;;;22.18;76.90
71126;BME280;58785;55.566;38.058;2023-08-12T03:57:58;100469.53;;;22.21;76.99
71126;BME280;58785;55.566;38.058;2023-08-12T04:00:23;100448.03;;;22.20;76.90
71126;BME280;58785;55.566;38.058;2023-08-12T04:02:49;100456.38;;;22.25;76.95
71126;BME280;58785;55.566;38.058;2023-08-12T04:05:15;100464.72;;;22.23;77.03
71126;BME280;58785;55.566;38.058;2023-08-12T04:07:41;100464.53;;;22.25;76.93
71126;BME280;58785;55.566;38.058;2023-08-12T04:10:07;100468.09;;;22.25;76.64
71126;BME280;58785;55.566;38.058;2023-08-12T04:12:32;100471.81;;;22.31;76.56
71126;BME280;58785;55.566;38.058;2023-08-12T04:14:58;100477.84;;;22.33;76.50
71126;BME280;58785;55.566;38.058;2023-08-12T04:17:25;100478.28;;;22.30;76.09
71126;BME280;58785;55.566;38.058;2023-08-12T04:19:51;100486.03;;;22.26;76.15
71126;BME280;58785;55.566;38.058;2023-08-12T04:22:16;100484.78;;;22.22;76.15
71126;BME280;58785;55.566;38.058;2023-08-12T04:24:42;100493.59;;;22.18;76.35
71126;BME280;58785;55.566;38.058;2023-08-12T04:27:08;100505.09;;;22.13;76.63
71126;BME280;58785;55.566;38.058;2023-08-12T04:29:35;100496.97;;;22.06;76.78
71126;BME280;58785;55.566;38.058;2023-08-12T04:32:01;100497.34;;;22.03;76.58
71126;BME280;58785;55.566;38.058;2023-08-12T04:34:27;100490.69;;;21.99;76.78
71126;BME280;58785;55.566;38.058;2023-08-12T04:36:53;100493.41;;;21.93;76.50
71126;BME280;58785;55.566;38.058;2023-08-12T04:39:18;100488.19;;;21.91;76.91
71126;BME280;58785;55.566;38.058;2023-08-12T04:41:44;100498.44;;;21.89;77.06
71126;BME280;58785;55.566;38.058;2023-08-12T04:44:10;100496.16;;;21.86;77.04
71126;BME280;58785;55.566;38.058;2023-08-12T04:46:35;100488.41;;;21.83;77.31
71126;BME280;58785;55.566;38.058;2023-08-12T04:49:03;100482.97;;;21.83;77.34
71126;BME280;58785;55.566;38.058;2023-08-12T04:51:29;100496.38;;;21.85;77.28
71126;BME280;58785;55.566;38.058;2023-08-12T04:53:55;100488.00;;;21.86;77.16
71126;BME280;58785;55.566;38.058;2023-08-12T04:56:21;100472.56;;;21.87;77.12
71126;BME280;58785;55.566;38.058;2023-08-12T04:58:46;100479.66;;;21.88;76.89
71126;BME280;58785;55.566;38.058;2023-08-12T05:01:12;100494.06;;;21.88;77.00
71126;BME280;58785;55.566;38.058;2023-08-12T05:03:38;100517.66;;;21.88;76.76
71126;BME280;58785;55.566;38.058;2023-08-12T05:06:03;100509.09;;;21.84;76.77
71126;BME280;58785;55.566;38.058;2023-08-12T05:08:30;100491.13;;;21.83;77.16
71126;BME280;58785;55.566;38.058;2023-08-12T05:10:55;100480.28;;;21.76;77.28
71126;BME280;58785;55.566;38.058;2023-08-12T05:13:21;100472.78;;;21.72;77.23
71126;BME280;58785;55.566;38.058;2023-08-12T05:15:49;100459.84;;;21.67;77.49
71126;BME280;58785;55.566;38.058;2023-08-12T05:18:18;100436.47;;;21.60;77.52
71126;BME280;58785;55.566;38.058;2023-08-12T05:20:43;100428.31;;;21.60;77.29
71126;BME280;58785;55.566;38.058;2023-08-12T05:23:09;100418.09;;;21.62;77.33
71126;BME280;58785;55.566;38.058;2023-08-12T05:25:35;100408.50;;;21.66;77.26
71126;BME280;58785;55.566;38.058;2023-08-12T05:28:01;100419.53;;;21.71;76.65
71126;BME280;58785;55.566;38.058;2023-08-12T05:30:27;100397.59;;;21.72;76.46
71126;BME280;58785;55.566;38.058;2023-08-12T05:32:53;100384.84;;;21.73;76.77
71126;BME280;58785;55.566;38.058;2023-08-12T05:35:18;100391.34;;;21.72;76.31
71126;BME280;58785;55.566;38.058;2023-08-12T05:37:44;100390.28;;;21.73;76.18
71126;BME280;58785;55.566;38.058;2023-08-12T05:40:10;100394.66;;;21.80;75.93
71126;BME280;58785;55.566;38.058;2023-08-12T05:42:37;100403.84;;;21.86;75.68
71126;BME280;58785;55.566;38.058;2023-08-12T05:45:03;100397.56;;;21.86;75.49
71126;BME280;58785;55.566;38.058;2023-08-12T05:47:33;100399.66;;;21.84;75.85
71126;BME280;58785;55.566;38.058;2023-08-12T05:49:59;100403.78;;;21.93;75.51
71126;BME280;58785;55.566;38.058;2023-08-12T05:54:52;100376.00;;;21.97;74.62
71126;BME280;58785;55.566;38.058;2023-08-12T05:57:17;100364.50;;;22.02;74.12
71126;BME280;58785;55.566;38.058;2023-08-12T05:59:43;100339.00;;;22.03;73.72
71126;BME280;58785;55.566;38.058;2023-08-12T06:02:09;100344.44;;;22.09;73.63
71126;BME280;58785;55.566;38.058;2023-08-12T06:04:35;100346.31;;;22.09;73.12
71126;BME280;58785;55.566;38.058;2023-08-12T06:07:00;100338.56;;;22.13;73.23
71126;BME280;58785;55.566;38.058;2023-08-12T06:09:26;100343.13;;;22.19;73.51
71126;BME280;58785;55.566;38.058;2023-08-12T06:11:52;100342.03;;;22.26;73.31
71126;BME280;58785;55.566;38.058;2023-08-12T06:14:18;100338.22;;;22.34;73.07
71126;BME280;58785;55.566;38.058;2023-08-12T06:16:43;100344.63;;;22.46;72.55
71126;BME280;58785;55.566;38.058;2023-08-12T06:19:09;100343.47;;;22.60;71.85
71126;BME280;58785;55.566;38.058;2023-08-12T06:21:35;100360.31;;;22.76;71.50
71126;BME280;58785;55.566;38.058;2023-08-12T06:24:01;100369.69;;;22.86;71.14
71126;BME280;58785;55.566;38.058;2023-08-12T06:26:27;100361.03;;;22.96;71.29
71126;BME280;58785;55.566;38.058;2023-08-12T06:28:52;100376.84;;;23.06;71.27
71126;BME280;58785;55.566;38.058;2023-08-12T06:31:18;100366.56;;;23.08;70.70
71126;BME280;58785;55.566;38.058;2023-08-12T06:33:44;100376.34;;;23.15;70.60
71126;BME280;58785;55.566;38.058;2023-08-12T06:36:10;100370.44;;;23.18;70.21
71126;BME280;58785;55.566;38.058;2023-08-12T06:38:36;100376.03;;;23.23;70.06
71126;BME280;58785;55.566;38.058;2023-08-12T06:41:02;100386.63;;;23.32;69.76
71126;BME280;58785;55.566;38.058;2023-08-12T06:43:27;100394.88;;;23.43;69.49
71126;BME280;58785;55.566;38.058;2023-08-12T06:45:53;100382.63;;;23.59;69.13
71126;BME280;58785;55.566;38.058;2023-08-12T06:48:19;100392.47;;;23.78;68.68
71126;BME280;58785;55.566;38.058;2023-08-12T06:50:45;100381.31;;;23.98;68.52
71126;BME280;58785;55.566;38.058;2023-08-12T06:53:11;100376.28;;;24.14;68.12
71126;BME280;58785;55.566;38.058;2023-08-12T06:55:36;100372.34;;;24.28;68.01
71126;BME280;58785;55.566;38.058;2023-08-12T06:58:08;100374.16;;;24.34;68.01
71126;BME280;58785;55.566;38.058;2023-08-12T07:00:34;100359.47;;;24.35;67.61
71126;BME280;58785;55.566;38.058;2023-08-12T07:03:00;100363.41;;;24.39;67.46
71126;BME280;58785;55.566;38.058;2023-08-12T07:05:25;100365.31;;;24.39;67.15
71126;BME280;58785;55.566;38.058;2023-08-12T07:07:51;100367.78;;;24.40;66.87
71126;BME280;58785;55.566;38.058;2023-08-12T07:10:17;100360.81;;;24.44;66.72
71126;BME280;58785;55.566;38.058;2023-08-12T07:12:42;100354.75;;;24.42;66.35
71126;BME280;58785;55.566;38.058;2023-08-12T07:15:08;100350.88;;;24.50;66.11
71126;BME280;58785;55.566;38.058;2023-08-12T07:17:36;100352.44;;;24.57;66.05
71126;BME280;58785;55.566;38.058;2023-08-12T07:20:02;100359.22;;;24.67;65.87
71126;BME280;58785;55.566;38.058;2023-08-12T07:22:30;100363.03;;;24.77;66.02
71126;BME280;58785;55.566;38.058;2023-08-12T07:24:55;100346.19;;;24.80;66.00
71126;BME280;58785;55.566;38.058;2023-08-12T07:27:21;100355.94;;;24.76;66.00
71126;BME280;58785;55.566;38.058;2023-08-12T07:29:47;100363.88;;;24.78;66.17
71126;BME280;58785;55.566;38.058;2023-08-12T07:32:13;100361.81;;;24.73;66.10
71126;BME280;58785;55.566;38.058;2023-08-12T07:34:38;100349.72;;;24.57;66.21
71126;BME280;58785;55.566;38.058;2023-08-12T07:37:04;100346.97;;;24.46;66.39
71126;BME280;58785;55.566;38.058;2023-08-12T07:39:29;100369.94;;;24.38;66.68
71126;BME280;58785;55.566;38.058;2023-08-12T07:41:55;100371.91;;;24.31;66.95
71126;BME280;58785;55.566;38.058;2023-08-12T07:44:21;100372.78;;;24.25;67.21
71126;BME280;58785;55.566;38.058;2023-08-12T07:46:47;100372.06;;;24.18;67.40
71126;BME280;58785;55.566;38.058;2023-08-12T07:49:13;100377.00;;;24.09;67.73
71126;BME280;58785;55.566;38.058;2023-08-12T07:51:39;100364.66;;;24.06;67.86
71126;BME280;58785;55.566;38.058;2023-08-12T07:54:05;100352.84;;;23.94;68.11
71126;BME280;58785;55.566;38.058;2023-08-12T07:56:31;100355.91;;;23.86;68.23
71126;BME280;58785;55.566;38.058;2023-08-12T07:58:57;100363.78;;;23.76;68.63
71126;BME280;58785;55.566;38.058;2023-08-12T08:01:23;100395.94;;;23.67;68.82
71126;BME280;58785;55.566;38.058;2023-08-12T08:03:49;100389.72;;;23.60;69.15
71126;BME280;58785;55.566;38.058;2023-08-12T08:06:15;100398.75;;;23.54;69.34
71126;BME280;58785;55.566;38.058;2023-08-12T08:08:40;100392.34;;;23.48;69.51
71126;BME280;58785;55.566;38.058;2023-08-12T08:11:06;100385.47;;;23.46;69.73
71126;BME280;58785;55.566;38.058;2023-08-12T08:13:32;100379.38;;;23.44;70.09
71126;BME280;58785;55.566;38.058;2023-08-12T08:15:57;100374.63;;;23.39;70.08
71126;BME280;58785;55.566;38.058;2023-08-12T08:18:23;100383.03;;;23.38;70.32
71126;BME280;58785;55.566;38.058;2023-08-12T08:20:49;100375.50;;;23.33;70.40
71126;BME280;58785;55.566;38.058;2023-08-12T08:23:18;100395.41;;;23.34;70.81
71126;BME280;58785;55.566;38.058;2023-08-12T08:25:43;100384.75;;;23.32;70.98
71126;BME280;58785;55.566;38.058;2023-08-12T08:28:09;100389.94;;;23.34;70.91
71126;BME280;58785;55.566;38.058;2023-08-12T08:30:35;100398.34;;;23.32;71.05
71126;BME280;58785;55.566;38.058;2023-08-12T08:33:01;100407.34;;;23.33;71.21
71126;BME280;58785;55.566;38.058;2023-08-12T08:35:27;100417.34;;;23.39;71.19
71126;BME280;58785;55.566;38.058;2023-08-12T08:37:53;100414.13;;;23.48;71.39
71126;BME280;58785;55.566;38.058;2023-08-12T08:40:19;100406.50;;;23.57;71.24
71126;BME280;58785;55.566;38.058;2023-08-12T08:42:46;100405.78;;;23.68;71.23
71126;BME280;58785;55.566;38.058;2023-08-12T08:45:16;100393.94;;;23.74;70.92
71126;BME280;58785;55.566;38.058;2023-08-12T08:47:42;100384.13;;;23.73;70.78
71126;BME280;58785;55.566;38.058;2023-08-12T08:50:10;100420.28;;;23.80;70.90
71126;BME280;58785;55.566;38.058;2023-08-12T08:52:36;100424.91;;;23.80;70.94
71126;BME280;58785;55.566;38.058;2023-08-12T08:55:04;100425.50;;;23.82;70.92
71126;BME280;58785;55.566;38.058;2023-08-12T08:57:30;100421.81;;;23.76;70.75
71126;BME280;58785;55.566;38.058;2023-08-12T08:59:55;100423.31;;;23.72;70.65
71126;BME280;58785;55.566;38.058;2023-08-12T09:02:22;100428.84;;;23.66;70.74
71126;BME280;58785;55.566;38.058;2023-08-12T09:04:49;100413.44;;;23.53;70.70
71126;BME280;58785;55.566;38.058;2023-08-12T09:07:15;100415.47;;;23.39;70.44
71126;BME280;58785;55.566;38.058;2023-08-12T09:09:45;100400.69;;;23.29;70.83
71126;BME280;58785;55.566;38.058;2023-08-12T09:12:16;100431.47;;;23.29;70.55
71126;BME280;58785;55.566;38.058;2023-08-12T09:14:42;100438.13;;;23.33;70.44
71126;BME280;58785;55.566;38.058;2023-08-12T09:17:09;100468.84;;;23.40;69.93
71126;BME280;58785;55.566;38.058;2023-08-12T09:19:34;100445.34;;;23.46;69.75
71126;BME280;58785;55.566;38.058;2023-08-12T09:22:03;100433.22;;;23.42;69.52
71126;BME280;58785;55.566;38.058;2023-08-12T09:24:29;100423.84;;;23.38;69.73
71126;BME280;58785;55.566;38.058;2023-08-12T09:26:56;100426.63;;;23.31;69.81
71126;BME280;58785;55.566;38.058;2023-08-12T09:29:23;100406.78;;;23.24;69.45
71126;BME280;58785;55.566;38.058;2023-08-12T09:31:50;100399.53;;;23.18;69.56
71126;BME280;58785;55.566;38.058;2023-08-12T09:34:17;100395.97;;;23.17;69.61
71126;BME280;58785;55.566;38.058;2023-08-12T09:36:43;100394.31;;;23.16;69.63
71126;BME280;58785;55.566;38.058;2023-08-12T09:39:09;100386.16;;;23.16;69.61
71126;BME280;58785;55.566;38.058;2023-08-12T09:41:37;100382.97;;;23.19;69.33
71126;BME280;58785;55.566;38.058;2023-08-12T09:44:03;100395.53;;;23.20;69.62
71126;BME280;58785;55.566;38.058;2023-08-12T09:46:28;100384.50;;;23.15;69.51
71126;BME280;58785;55.566;38.058;2023-08-12T09:48:55;100375.31;;;23.10;69.87
71126;BME280;58785;55.566;38.058;2023-08-12T09:51:21;100382.19;;;23.12;69.67
71126;BME280;58785;55.566;38.058;2023-08-12T09:53:48;100382.88;;;23.08;69.90
71126;BME280;58785;55.566;38.058;2023-08-12T09:56:18;100392.59;;;22.97;70.28
71126;BME280;58785;55.566;38.058;2023-08-12T09:58:47;100402.00;;;22.94;71.00
71126;BME280;58785;55.566;38.058;2023-08-12T10:01:13;100397.25;;;22.90;71.11
71126;BME280;58785;55.566;38.058;2023-08-12T10:03:43;100388.50;;;22.88;71.22
71126;BME280;58785;55.566;38.058;2023-08-12T10:06:12;100387.44;;;22.82;71.80
71126;BME280;58785;55.566;38.058;2023-08-12T10:08:38;100375.63;;;22.70;71.77
71126;BME280;58785;55.566;38.058;2023-08-12T10:11:04;100380.44;;;22.68;72.39
71126;BME280;58785;55.566;38.058;2023-08-12T10:13:30;100380.91;;;22.65;72.72
71126;BME280;58785;55.566;38.058;2023-08-12T10:15:56;100383.63;;;22.65;73.18
71126;BME280;58785;55.566;38.058;2023-08-12T10:18:22;100382.56;;;22.66;73.26
71126;BME280;58785;55.566;38.058;2023-08-12T10:20:48;100388.81;;;22.66;73.48
71126;BME280;58785;55.566;38.058;2023-08-12T10:23:16;100395.69;;;22.69;73.62
71126;BME280;58785;55.566;38.058;2023-08-12T10:25:44;100402.56;;;22.72;73.76
71126;BME280;58785;55.566;38.058;2023-08-12T10:28:11;100405.53;;;22.70;74.09
71126;BME280;58785;55.566;38.058;2023-08-12T10:30:40;100392.16;;;22.69;74.49
71126;BME280;58785;55.566;38.058;2023-08-12T10:33:08;100404.25;;;22.73;74.68
71126;BME280;58785;55.566;38.058;2023-08-12T10:35:43;100407.19;;;22.71;75.32
71126;BME280;58785;55.566;38.058;2023-08-12T10:38:15;100404.09;;;22.67;75.45
71126;BME280;58785;55.566;38.058;2023-08-12T10:40:42;100392.03;;;22.57;75.77
71126;BME280;58785;55.566;38.058;2023-08-12T10:43:08;100397.69;;;22.55;75.81
71126;BME280;58785;55.566;38.058;2023-08-12T10:45:54;100409.16;;;22.57;75.51
71126;BME280;58785;55.566;38.058;2023-08-12T10:48:24;100395.56;;;22.57;75.75
71126;BME280;58785;55.566;38.058;2023-08-12T10:50:55;100425.88;;;22.61;75.61
71126;BME280;58785;55.566;38.058;2023-08-12T10:53:31;100393.25;;;22.61;75.12
71126;BME280;58785;55.566;38.058;2023-08-12T10:56:03;100408.69;;;22.67;74.90
71126;BME280;58785;55.566;38.058;2023-08-12T10:58:46;100417.91;;;22.66;75.10
71126;BME280;58785;55.566;38.058;2023-08-12T11:01:18;100432.31;;;22.66;74.95
71126;BME280;58785;55.566;38.058;2023-08-12T11:03:45;100426.06;;;22.66;74.93
71126;BME280;58785;55.566;38.058;2023-08-12T11:06:12;100419.78;;;22.65;74.92
71126;BME280;58785;55.566;38.058;2023-08-12T11:08:48;100431.69;;;22.64;75.03
71126;BME280;58785;55.566;38.058;2023-08-12T11:11:22;100452.59;;;22.64;75.19
71126;BME280;58785;55.566;38.058;2023-08-12T11:13:57;100453.50;;;22.58;75.25
71126;BME280;58785;55.566;38.058;2023-08-12T11:16:36;100452.44;;;22.59;75.87
71126;BME280;58785;55.566;38.058;2023-08-12T11:19:03;100451.22;;;22.55;76.64
71126;BME280;58785;55.566;38.058;2023-08-12T11:21:29;100451.25;;;22.48;76.31
71126;BME280;58785;55.566;38.058;2023-08-12T11:23:55;100447.94;;;22.40;76.87
71126;BME280;58785;55.566;38.058;2023-08-12T11:26:23;100446.91;;;22.34;77.59
71126;BME280;58785;55.566;38.058;2023-08-12T11:28:49;100447.38;;;22.24;77.83
71126;BME280;58785;55.566;38.058;2023-08-12T11:31:16;100444.66;;;22.24;78.47
71126;BME280;58785;55.566;38.058;2023-08-12T11:33:41;100438.81;;;22.21;78.32
71126;BME280;58785;55.566;38.058;2023-08-12T11:36:07;100433.84;;;22.18;78.27
71126;BME280;58785;55.566;38.058;2023-08-12T11:38:33;100425.09;;;22.09;78.73
71126;BME280;58785;55.566;38.058;2023-08-12T11:41:02;100428.44;;;21.98;79.08
71126;BME280;58785;55.566;38.058;2023-08-12T11:43:32;100432.44;;;21.89;79.37
71126;BME280;58785;55.566;38.058;2023-08-12T11:45:59;100415.09;;;21.83;79.73
71126;BME280;58785;55.566;38.058;2023-08-12T11:48:28;100408.22;;;21.74;80.06
71126;BME280;58785;55.566;38.058;2023-08-12T11:50:55;100394.47;;;21.69;80.41
71126;BME280;58785;55.566;38.058;2023-08-12T11:53:20;100398.69;;;21.65;80.58
71126;BME280;58785;55.566;38.058;2023-08-12T11:55:46;100400.53;;;21.64;80.83
71126;BME280;58785;55.566;38.058;2023-08-12T11:58:14;100405.78;;;21.66;80.70
71126;BME280;58785;55.566;38.058;2023-08-12T12:00:46;100416.19;;;21.69;80.95
71126;BME280;58785;55.566;38.058;2023-08-12T12:03:13;100425.78;;;21.71;80.86
71126;BME280;58785;55.566;38.058;2023-08-12T12:05:39;100425.81;;;21.65;81.08
71126;BME280;58785;55.566;38.058;2023-08-12T12:08:05;100431.44;;;21.70;81.76
71126;BME280;58785;55.566;38.058;2023-08-12T12:10:34;100419.53;;;21.64;81.76
71126;BME280;58785;55.566;38.058;2023-08-12T12:13:03;100436.25;;;21.61;81.93
71126;BME280;58785;55.566;38.058;2023-08-12T12:15:30;100445.88;;;21.57;82.31
71126;BME280;58785;55.566;38.058;2023-08-12T12:17:56;100444.63;;;21.46;82.61
71126;BME280;58785;55.566;38.058;2023-08-12T12:20:22;100429.78;;;21.22;83.13
71126;BME280;58785;55.566;38.058;2023-08-12T12:22:48;100439.81;;;21.15;83.57
71126;BME280;58785;55.566;38.058;2023-08-12T12:25:16;100451.47;;;21.03;83.67
71126;BME280;58785;55.566;38.058;2023-08-12T12:27:46;100441.06;;;20.86;84.42
71126;BME280;58785;55.566;38.058;2023-08-12T12:30:15;100425.56;;;20.74;84.49
71126;BME280;58785;55.566;38.058;2023-08-12T12:32:41;100424.97;;;20.65;84.80
71126;BME280;58785;55.566;38.058;2023-08-12T13:31:10;100248.59;;;20.60;86.10
71126;BME280;58785;55.566;38.058;2023-08-12T13:33:36;100287.16;;;20.69;86.24
71126;BME280;58785;55.566;38.058;2023-08-12T13:36:02;100308.63;;;20.70;86.70
71126;BME280;58785;55.566;38.058;2023-08-12T13:38:27;100291.94;;;20.73;86.50